createdAt,value
2023-02-25T00:00:50.647Z,6.46
2023-02-25T00:02:02.950Z,6.41
2023-02-25T00:02:51.712Z,6.36
2023-02-25T00:03:50.697Z,6.38
2023-02-25T00:04:50.606Z,6.27
2023-02-25T00:05:50.611Z,6.28
2023-02-25T00:06:50.601Z,6.20
2023-02-25T00:07:50.591Z,6.19
2023-02-25T00:08:50.580Z,6.22
2023-02-25T00:09:50.556Z,6.27
2023-02-25T00:10:50.611Z,6.27
2023-02-25T00:11:50.588Z,6.31
2023-02-25T00:12:50.514Z,6.28
2023-02-25T00:13:50.515Z,6.28
2023-02-25T00:14:50.489Z,6.24
2023-02-25T00:15:50.481Z,6.28
2023-02-25T00:16:50.535Z,6.28
2023-02-25T00:17:50.469Z,6.22
2023-02-25T00:18:50.457Z,6.27
2023-02-25T00:19:50.459Z,6.24
2023-02-25T00:20:50.460Z,6.24
2023-02-25T00:21:50.425Z,6.28
2023-02-25T00:22:50.433Z,6.17
2023-02-25T00:23:50.412Z,6.20
2023-02-25T00:24:50.390Z,6.24
2023-02-25T00:25:50.410Z,6.20
2023-02-25T00:26:50.444Z,6.27
2023-02-25T00:27:50.393Z,6.22
2023-02-25T00:28:50.352Z,6.27
2023-02-25T00:29:50.342Z,6.19
2023-02-25T00:30:50.363Z,6.28
2023-02-25T00:31:50.588Z,6.27
2023-02-25T00:32:50.444Z,6.22
2023-02-25T00:33:50.297Z,6.33
2023-02-25T00:34:50.289Z,6.24
2023-02-25T00:35:50.280Z,6.24
2023-02-25T00:36:50.384Z,6.19
2023-02-25T00:37:50.257Z,6.17
2023-02-25T00:38:50.281Z,6.01
2023-02-25T00:39:50.234Z,5.93
2023-02-25T00:40:50.219Z,5.93
2023-02-25T00:41:50.214Z,5.91
2023-02-25T00:42:50.211Z,5.93
2023-02-25T00:43:50.262Z,5.93
2023-02-25T00:44:50.182Z,5.90
2023-02-25T00:45:50.167Z,5.80
2023-02-25T00:46:50.239Z,5.79
2023-02-25T00:47:50.145Z,5.82
2023-02-25T00:48:50.160Z,5.84
2023-02-25T00:49:50.188Z,5.76
2023-02-25T00:50:50.219Z,5.82
2023-02-25T00:51:50.119Z,5.83
2023-02-25T00:52:50.154Z,5.82
2023-02-25T00:53:50.104Z,5.80
2023-02-25T00:54:50.081Z,5.76
2023-02-25T00:55:50.128Z,5.79
2023-02-25T00:56:50.088Z,5.86
2023-02-25T00:57:50.055Z,5.89
2023-02-25T00:58:50.092Z,5.80
2023-02-25T00:59:50.123Z,5.82
2023-02-25T01:00:52.035Z,5.87
2023-02-25T01:01:50.044Z,5.84
2023-02-25T01:02:50.022Z,5.84
2023-02-25T01:03:50.002Z,5.79
2023-02-25T01:04:50.007Z,5.84
2023-02-25T01:05:50.017Z,5.82
2023-02-25T01:06:49.950Z,5.87
2023-02-25T01:07:49.977Z,5.79
2023-02-25T01:08:49.941Z,5.76
2023-02-25T01:09:49.921Z,5.73
2023-02-25T01:10:49.905Z,5.87
2023-02-25T01:11:49.892Z,5.80
2023-02-25T01:12:49.933Z,5.84
2023-02-25T01:13:49.938Z,5.83
2023-02-25T01:14:49.872Z,5.84
2023-02-25T01:15:49.884Z,5.86
2023-02-25T01:16:49.856Z,5.83
2023-02-25T01:17:49.873Z,5.91
2023-02-25T01:18:49.811Z,5.91
2023-02-25T01:19:49.812Z,5.93
2023-02-25T01:20:49.806Z,5.87
2023-02-25T01:21:49.799Z,5.83
2023-02-25T01:22:49.799Z,5.82
2023-02-25T01:23:49.772Z,5.80
2023-02-25T01:24:49.776Z,5.87
2023-02-25T01:25:49.789Z,5.82
2023-02-25T01:26:49.726Z,5.80
2023-02-25T01:27:49.725Z,5.98
2023-02-25T01:28:49.739Z,5.93
2023-02-25T01:29:49.700Z,5.90
2023-02-25T01:30:49.780Z,5.89
2023-02-25T01:31:49.899Z,5.91
2023-02-25T01:32:49.758Z,5.84
2023-02-25T01:33:49.654Z,5.91
2023-02-25T01:34:49.661Z,5.89
2023-02-25T01:35:49.636Z,5.93
2023-02-25T01:36:49.658Z,5.97
2023-02-25T01:37:49.619Z,6.04
2023-02-25T01:38:49.604Z,6.01
2023-02-25T01:39:49.612Z,6.04
2023-02-25T01:40:49.580Z,6.02
2023-02-25T01:41:49.569Z,6.02
2023-02-25T01:42:49.555Z,6.05
2023-02-25T01:43:49.550Z,6.07
2023-02-25T01:44:49.577Z,5.99
2023-02-25T01:45:49.535Z,5.99
2023-02-25T01:46:49.583Z,6.02
2023-02-25T01:47:49.538Z,6.05
2023-02-25T01:48:49.548Z,6.11
2023-02-25T01:49:49.495Z,6.20
2023-02-25T01:50:49.483Z,6.17
2023-02-25T01:51:49.472Z,6.14
2023-02-25T01:52:49.462Z,6.08
2023-02-25T01:53:49.472Z,6.20
2023-02-25T01:54:49.483Z,6.26
2023-02-25T01:55:49.467Z,6.12
2023-02-25T01:56:49.439Z,6.04
2023-02-25T01:57:49.402Z,5.93
2023-02-25T01:58:49.391Z,5.89
2023-02-25T01:59:49.393Z,5.97
2023-02-25T02:00:49.451Z,5.98
2023-02-25T02:01:49.370Z,5.91
2023-02-25T02:02:49.521Z,5.87
2023-02-25T02:03:49.366Z,5.87
2023-02-25T02:04:49.335Z,5.93
2023-02-25T02:05:49.365Z,5.90
2023-02-25T02:06:49.327Z,5.94
2023-02-25T02:07:49.301Z,6.02
2023-02-25T02:08:49.292Z,6.01
2023-02-25T02:09:49.304Z,6.01
2023-02-25T02:10:49.310Z,6.16
2023-02-25T02:11:49.270Z,6.01
2023-02-25T02:12:49.249Z,5.97
2023-02-25T02:13:49.247Z,6.02
2023-02-25T02:14:49.284Z,6.04
2023-02-25T02:15:49.259Z,6.14
2023-02-25T02:16:49.263Z,6.05
2023-02-25T02:17:49.277Z,6.01
2023-02-25T02:18:49.220Z,5.98
2023-02-25T02:19:49.199Z,6.04
2023-02-25T02:20:49.183Z,6.02
2023-02-25T02:21:49.189Z,6.04
2023-02-25T02:22:49.182Z,6.07
2023-02-25T02:23:49.142Z,6.19
2023-02-25T02:24:49.134Z,6.16
2023-02-25T02:25:49.128Z,6.16
2023-02-25T02:26:49.124Z,6.14
2023-02-25T02:27:49.105Z,6.12
2023-02-25T02:28:49.124Z,6.12
2023-02-25T02:29:49.080Z,6.14
2023-02-25T02:30:49.130Z,6.14
2023-02-25T02:31:49.185Z,6.12
2023-02-25T02:32:49.130Z,6.19
2023-02-25T02:33:49.044Z,6.14
2023-02-25T02:34:49.038Z,6.19
2023-02-25T02:35:49.028Z,6.16
2023-02-25T02:36:49.015Z,6.20
2023-02-25T02:37:49.018Z,6.20
2023-02-25T02:38:49.042Z,6.22
2023-02-25T02:39:48.994Z,6.17
2023-02-25T02:40:48.984Z,6.14
2023-02-25T02:41:48.960Z,6.12
2023-02-25T02:42:48.980Z,6.11
2023-02-25T02:43:48.924Z,6.12
2023-02-25T02:44:48.928Z,6.12
2023-02-25T02:45:48.991Z,6.11
2023-02-25T02:46:48.911Z,6.20
2023-02-25T02:47:48.887Z,6.26
2023-02-25T02:48:48.916Z,6.16
2023-02-25T02:49:48.893Z,6.24
2023-02-25T02:50:48.861Z,6.12
2023-02-25T02:51:48.849Z,6.20
2023-02-25T02:52:48.863Z,6.27
2023-02-25T02:53:48.830Z,6.26
2023-02-25T02:54:48.817Z,6.33
2023-02-25T02:55:48.803Z,6.20
2023-02-25T02:56:48.783Z,6.27
2023-02-25T02:57:48.810Z,6.28
2023-02-25T02:58:48.811Z,6.27
2023-02-25T02:59:48.786Z,6.28
2023-02-25T03:00:48.794Z,6.27
2023-02-25T03:01:48.780Z,6.20
2023-02-25T03:02:48.717Z,6.24
2023-02-25T03:03:48.781Z,6.22
2023-02-25T03:04:48.712Z,6.28
2023-02-25T03:05:48.694Z,6.31
2023-02-25T03:06:48.706Z,6.22
2023-02-25T03:07:48.675Z,6.24
2023-02-25T03:08:48.661Z,6.30
2023-02-25T03:09:48.677Z,6.31
2023-02-25T03:10:48.657Z,6.38
2023-02-25T03:11:48.653Z,6.35
2023-02-25T03:12:48.623Z,6.36
2023-02-25T03:13:48.609Z,6.33
2023-02-25T03:14:48.612Z,6.33
2023-02-25T03:15:48.587Z,6.33
2023-02-25T03:16:48.703Z,6.24
2023-02-25T03:17:48.563Z,6.27
2023-02-25T03:18:48.578Z,6.26
2023-02-25T03:19:48.561Z,6.22
2023-02-25T03:20:48.539Z,6.22
2023-02-25T03:21:48.538Z,6.22
2023-02-25T03:22:48.531Z,6.17
2023-02-25T03:23:48.518Z,6.19
2023-02-25T03:24:48.525Z,6.19
2023-02-25T03:25:48.485Z,6.20
2023-02-25T03:26:48.476Z,6.17
2023-02-25T03:27:48.486Z,6.16
2023-02-25T03:28:48.453Z,6.12
2023-02-25T03:29:48.437Z,6.19
2023-02-25T03:30:48.493Z,6.07
2023-02-25T03:31:48.605Z,5.99
2023-02-25T03:32:48.487Z,6.07
2023-02-25T03:33:48.417Z,6.07
2023-02-25T03:34:48.401Z,6.02
2023-02-25T03:35:48.382Z,6.12
2023-02-25T03:36:48.378Z,6.19
2023-02-25T03:37:48.359Z,6.11
2023-02-25T03:38:48.377Z,6.16
2023-02-25T03:39:48.363Z,6.20
2023-02-25T03:40:48.326Z,6.19
2023-02-25T03:41:48.337Z,6.16
2023-02-25T03:42:48.332Z,6.16
2023-02-25T03:43:48.371Z,5.97
2023-02-25T03:44:48.281Z,5.91
2023-02-25T03:45:48.287Z,5.93
2023-02-25T03:46:48.285Z,5.97
2023-02-25T03:47:48.253Z,5.91
2023-02-25T03:48:48.255Z,5.94
2023-02-25T03:49:48.249Z,5.91
2023-02-25T03:50:48.232Z,5.94
2023-02-25T03:51:48.212Z,5.94
2023-02-25T03:52:48.232Z,5.83
2023-02-25T03:53:48.193Z,5.89
2023-02-25T03:54:48.221Z,5.86
2023-02-25T03:55:48.178Z,5.83
2023-02-25T03:56:48.163Z,5.79
2023-02-25T03:57:48.178Z,5.75
2023-02-25T03:58:48.189Z,5.76
2023-02-25T03:59:48.122Z,5.75
2023-02-25T04:00:48.122Z,5.79
2023-02-25T04:01:48.090Z,5.84
2023-02-25T04:02:48.145Z,5.80
2023-02-25T04:03:48.122Z,5.84
2023-02-25T04:04:48.100Z,5.86
2023-02-25T04:05:48.049Z,5.93
2023-02-25T04:06:48.047Z,5.98
2023-02-25T04:07:48.048Z,5.93
2023-02-25T04:08:48.049Z,6.05
2023-02-25T04:09:48.008Z,6.01
2023-02-25T04:10:48.089Z,6.07
2023-02-25T04:11:48.005Z,6.01
2023-02-25T04:12:47.977Z,6.07
2023-02-25T04:13:47.962Z,6.04
2023-02-25T04:14:47.983Z,6.12
2023-02-25T04:15:48.006Z,6.16
2023-02-25T04:16:47.956Z,6.08
2023-02-25T04:17:47.922Z,6.17
2023-02-25T04:18:47.929Z,6.17
2023-02-25T04:19:47.932Z,6.08
2023-02-25T04:20:47.898Z,6.20
2023-02-25T04:21:47.879Z,6.22
2023-02-25T04:22:47.887Z,6.11
2023-02-25T04:23:47.856Z,6.14
2023-02-25T04:24:47.849Z,6.07
2023-02-25T04:25:47.872Z,6.07
2023-02-25T04:26:47.871Z,6.08
2023-02-25T04:27:47.825Z,6.01
2023-02-25T04:28:47.816Z,6.05
2023-02-25T04:29:47.796Z,6.09
2023-02-25T04:30:47.970Z,6.02
2023-02-25T04:31:47.974Z,5.97
2023-02-25T04:32:47.820Z,6.05
2023-02-25T04:33:47.779Z,5.94
2023-02-25T04:34:47.768Z,5.94
2023-02-25T04:35:47.773Z,5.93
2023-02-25T04:36:47.720Z,5.91
2023-02-25T04:37:47.751Z,5.94
2023-02-25T04:38:47.704Z,5.91
2023-02-25T04:39:47.728Z,5.91
2023-02-25T04:40:47.681Z,5.93
2023-02-25T04:41:47.717Z,5.90
2023-02-25T04:42:47.665Z,5.94
2023-02-25T04:43:47.666Z,5.84
2023-02-25T04:44:47.662Z,5.82
2023-02-25T04:45:47.644Z,5.79
2023-02-25T04:46:47.669Z,5.87
2023-02-25T04:47:47.630Z,5.84
2023-02-25T04:48:47.619Z,5.89
2023-02-25T04:49:47.601Z,5.84
2023-02-25T04:50:47.572Z,5.84
2023-02-25T04:51:47.563Z,5.89
2023-02-25T04:52:47.561Z,5.87
2023-02-25T04:53:47.565Z,5.83
2023-02-25T04:54:47.532Z,5.80
2023-02-25T04:55:47.515Z,5.87
2023-02-25T04:56:47.511Z,5.82
2023-02-25T04:57:47.655Z,5.86
2023-02-25T04:58:47.488Z,5.82
2023-02-25T04:59:47.496Z,5.84
2023-02-25T05:00:47.469Z,5.84
2023-02-25T05:01:47.520Z,5.89
2023-02-25T05:02:47.480Z,5.84
2023-02-25T05:03:47.440Z,5.89
2023-02-25T05:04:47.464Z,5.87
2023-02-25T05:05:47.407Z,5.89
2023-02-25T05:06:47.441Z,5.87
2023-02-25T05:07:47.408Z,5.75
2023-02-25T05:08:47.402Z,5.82
2023-02-25T05:09:47.368Z,5.75
2023-02-25T05:10:47.377Z,5.73
2023-02-25T05:11:47.351Z,5.72
2023-02-25T05:12:47.372Z,5.76
2023-02-25T05:13:47.339Z,5.75
2023-02-25T05:14:47.331Z,5.72
2023-02-25T05:15:47.347Z,5.75
2023-02-25T05:16:47.298Z,5.75
2023-02-25T05:17:47.287Z,5.72
2023-02-25T05:18:47.317Z,5.71
2023-02-25T05:19:47.321Z,5.72
2023-02-25T05:20:47.260Z,5.72
2023-02-25T05:21:47.254Z,5.87
2023-02-25T05:22:47.227Z,5.79
2023-02-25T05:23:47.240Z,5.71
2023-02-25T05:24:47.280Z,5.73
2023-02-25T05:25:47.232Z,5.79
2023-02-25T05:26:47.209Z,5.76
2023-02-25T05:27:47.179Z,5.76
2023-02-25T05:28:47.173Z,5.76
2023-02-25T05:29:47.181Z,5.75
2023-02-25T05:30:47.220Z,5.80
2023-02-25T05:31:47.404Z,5.79
2023-02-25T05:32:47.281Z,5.83
2023-02-25T05:33:47.123Z,5.75
2023-02-25T05:34:47.105Z,5.82
2023-02-25T05:35:47.092Z,5.75
2023-02-25T05:36:47.095Z,5.83
2023-02-25T05:37:47.067Z,5.83
2023-02-25T05:38:47.061Z,5.79
2023-02-25T05:39:47.073Z,5.80
2023-02-25T05:40:47.037Z,5.80
2023-02-25T05:41:47.043Z,5.79
2023-02-25T05:42:47.023Z,5.84
2023-02-25T05:43:54.619Z,5.75
2023-02-25T05:44:46.986Z,5.80
2023-02-25T05:45:46.976Z,5.76
2023-02-25T05:46:47.011Z,5.83
2023-02-25T05:47:47.086Z,5.76
2023-02-25T05:48:47.114Z,5.86
2023-02-25T05:49:46.928Z,5.83
2023-02-25T05:50:46.916Z,5.79
2023-02-25T05:51:46.917Z,5.73
2023-02-25T05:52:46.938Z,5.75
2023-02-25T05:53:46.894Z,5.79
2023-02-25T05:54:46.878Z,5.75
2023-02-25T05:55:46.861Z,5.73
2023-02-25T05:56:46.858Z,5.76
2023-02-25T05:57:46.876Z,5.79
2023-02-25T05:58:46.873Z,5.66
2023-02-25T05:59:46.827Z,5.73
2023-02-25T06:00:46.805Z,5.75
2023-02-25T06:01:46.830Z,5.75
2023-02-25T06:02:46.859Z,5.72
2023-02-25T06:03:46.826Z,5.73
2023-02-25T06:04:46.799Z,5.75
2023-02-25T06:05:47.983Z,5.76
2023-02-25T06:06:46.748Z,5.76
2023-02-25T06:07:46.730Z,5.80
2023-02-25T06:08:46.731Z,5.75
2023-02-25T06:09:46.740Z,5.69
2023-02-25T06:10:46.696Z,5.75
2023-02-25T06:11:46.687Z,5.73
2023-02-25T06:12:46.701Z,5.69
2023-02-25T06:13:46.675Z,5.72
2023-02-25T06:14:46.670Z,5.72
2023-02-25T06:15:46.674Z,5.79
2023-02-25T06:16:46.689Z,5.82
2023-02-25T06:17:46.636Z,5.73
2023-02-25T06:18:46.611Z,5.83
2023-02-25T06:19:46.626Z,5.84
2023-02-25T06:20:46.594Z,5.76
2023-02-25T06:21:46.605Z,5.76
2023-02-25T06:22:46.568Z,5.72
2023-02-25T06:23:46.558Z,5.82
2023-02-25T06:24:46.553Z,5.73
2023-02-25T06:25:46.571Z,5.72
2023-02-25T06:26:46.533Z,5.72
2023-02-25T06:27:46.527Z,5.72
2023-02-25T06:28:46.504Z,5.72
2023-02-25T06:29:46.494Z,5.65
2023-02-25T06:30:46.581Z,5.65
2023-02-25T06:31:46.739Z,5.62
2023-02-25T06:32:46.516Z,5.54
2023-02-25T06:33:46.465Z,5.48
2023-02-25T06:34:46.439Z,5.56
2023-02-25T06:35:46.490Z,5.59
2023-02-25T06:36:46.427Z,5.46
2023-02-25T06:37:46.409Z,5.51
2023-02-25T06:38:46.412Z,5.47
2023-02-25T06:39:46.401Z,5.46
2023-02-25T06:40:46.387Z,5.48
2023-02-25T06:41:46.406Z,5.43
2023-02-25T06:42:46.368Z,5.36
2023-02-25T06:43:46.427Z,5.46
2023-02-25T06:44:46.352Z,5.33
2023-02-25T06:45:46.391Z,5.39
2023-02-25T06:46:46.337Z,5.38
2023-02-25T06:47:46.308Z,5.39
2023-02-25T06:48:46.306Z,5.39
2023-02-25T06:49:46.298Z,5.36
2023-02-25T06:50:46.273Z,5.38
2023-02-25T06:51:46.302Z,5.44
2023-02-25T06:52:46.264Z,5.43
2023-02-25T06:53:46.267Z,5.35
2023-02-25T06:54:46.235Z,5.39
2023-02-25T06:55:46.216Z,5.35
2023-02-25T06:56:46.256Z,5.33
2023-02-25T06:57:46.193Z,5.29
2023-02-25T06:58:46.187Z,5.25
2023-02-25T06:59:46.181Z,5.30
2023-02-25T07:00:46.169Z,5.35
2023-02-25T07:01:46.150Z,5.33
2023-02-25T07:02:46.172Z,5.38
2023-02-25T07:03:46.132Z,5.36
2023-02-25T07:04:46.137Z,5.36
2023-02-25T07:05:47.158Z,5.44
2023-02-25T07:06:46.099Z,5.35
2023-02-25T07:07:46.135Z,5.41
2023-02-25T07:08:46.091Z,5.39
2023-02-25T07:09:46.072Z,5.46
2023-02-25T07:10:46.059Z,5.47
2023-02-25T07:11:46.046Z,5.50
2023-02-25T07:12:46.068Z,5.54
2023-02-25T07:13:46.024Z,5.59
2023-02-25T07:14:46.020Z,5.57
2023-02-25T07:15:46.106Z,5.62
2023-02-25T07:16:46.016Z,5.68
2023-02-25T07:17:45.989Z,5.66
2023-02-25T07:18:45.996Z,5.68
2023-02-25T07:19:45.995Z,5.71
2023-02-25T07:20:45.949Z,5.61
2023-02-25T07:21:45.941Z,5.75
2023-02-25T07:22:45.964Z,5.71
2023-02-25T07:23:45.930Z,5.71
2023-02-25T07:24:45.985Z,5.66
2023-02-25T07:25:45.897Z,5.79
2023-02-25T07:26:45.893Z,5.73
2023-02-25T07:27:45.876Z,5.75
2023-02-25T07:28:45.893Z,5.73
2023-02-25T07:29:45.886Z,5.79
2023-02-25T07:30:45.998Z,5.83
2023-02-25T07:31:45.992Z,5.84
2023-02-25T07:32:45.960Z,5.83
2023-02-25T07:33:45.870Z,5.75
2023-02-25T07:34:45.804Z,5.83
2023-02-25T07:35:45.790Z,5.84
2023-02-25T07:36:45.797Z,5.89
2023-02-25T07:37:45.784Z,5.94
2023-02-25T07:38:45.760Z,5.94
2023-02-25T07:39:47.697Z,5.94
2023-02-25T07:40:45.746Z,5.91
2023-02-25T07:41:45.724Z,5.99
2023-02-25T07:42:45.715Z,5.98
2023-02-25T07:43:45.713Z,5.93
2023-02-25T07:44:45.728Z,5.90
2023-02-25T07:45:45.736Z,5.93
2023-02-25T07:46:45.686Z,5.93
2023-02-25T07:47:45.677Z,5.87
2023-02-25T07:48:45.669Z,5.89
2023-02-25T07:49:45.673Z,5.97
2023-02-25T07:50:45.684Z,5.89
2023-02-25T07:51:45.634Z,5.97
2023-02-25T07:52:45.616Z,5.93
2023-02-25T07:53:45.607Z,5.93
2023-02-25T07:54:45.622Z,5.94
2023-02-25T07:55:45.631Z,5.90
2023-02-25T07:56:45.578Z,5.93
2023-02-25T07:57:45.562Z,5.98
2023-02-25T07:58:45.547Z,6.04
2023-02-25T07:59:45.548Z,5.99
2023-02-25T08:00:46.142Z,6.16
2023-02-25T08:01:45.553Z,6.22
2023-02-25T08:02:45.566Z,6.02
2023-02-25T08:03:45.497Z,6.02
2023-02-25T08:04:45.566Z,6.09
2023-02-25T08:05:45.518Z,5.93
2023-02-25T08:06:45.496Z,5.91
2023-02-25T08:07:45.460Z,5.91
2023-02-25T08:08:45.447Z,5.94
2023-02-25T08:09:45.438Z,5.94
2023-02-25T08:10:45.434Z,6.01
2023-02-25T08:11:45.438Z,6.02
2023-02-25T08:12:45.452Z,5.94
2023-02-25T08:13:45.396Z,6.09
2023-02-25T08:14:45.377Z,6.08
2023-02-25T08:15:45.414Z,6.17
2023-02-25T08:16:45.395Z,6.08
2023-02-25T08:17:45.361Z,6.04
2023-02-25T08:18:45.346Z,6.02
2023-02-25T08:19:45.368Z,6.07
2023-02-25T08:20:45.332Z,6.14
2023-02-25T08:21:45.351Z,6.11
2023-02-25T08:22:45.294Z,6.26
2023-02-25T08:23:45.321Z,6.31
2023-02-25T08:24:45.296Z,6.51
2023-02-25T08:25:45.272Z,6.49
2023-02-25T08:26:45.275Z,6.54
2023-02-25T08:27:45.285Z,6.57
2023-02-25T08:28:45.245Z,6.60
2023-02-25T08:29:45.224Z,6.57
2023-02-25T08:30:45.286Z,6.67
2023-02-25T08:31:45.431Z,6.60
2023-02-25T08:32:45.382Z,6.57
2023-02-25T08:33:45.201Z,6.60
2023-02-25T08:34:47.169Z,6.57
2023-02-25T08:35:45.161Z,6.59
2023-02-25T08:36:45.152Z,6.62
2023-02-25T08:37:45.137Z,6.60
2023-02-25T08:38:45.160Z,6.63
2023-02-25T08:39:45.148Z,6.75
2023-02-25T08:40:45.115Z,6.75
2023-02-25T08:41:45.100Z,6.67
2023-02-25T08:42:45.094Z,6.72
2023-02-25T08:43:45.094Z,6.70
2023-02-25T08:44:45.076Z,6.60
2023-02-25T08:45:45.088Z,6.67
2023-02-25T08:46:45.109Z,6.60
2023-02-25T08:47:45.034Z,6.57
2023-02-25T08:48:45.032Z,6.52
2023-02-25T08:49:45.003Z,6.57
2023-02-25T08:50:45.022Z,6.63
2023-02-25T08:51:44.997Z,6.57
2023-02-25T08:52:44.972Z,6.60
2023-02-25T08:53:44.960Z,6.57
2023-02-25T08:54:44.994Z,6.51
2023-02-25T08:55:44.933Z,6.48
2023-02-25T08:56:45.480Z,6.39
2023-02-25T08:57:44.916Z,6.42
2023-02-25T08:58:44.910Z,6.27
2023-02-25T08:59:44.923Z,6.20
2023-02-25T09:00:44.984Z,6.28
2023-02-25T09:01:45.369Z,6.20
2023-02-25T09:02:44.866Z,6.20
2023-02-25T09:03:44.865Z,6.22
2023-02-25T09:04:44.896Z,6.19
2023-02-25T09:05:44.863Z,6.17
2023-02-25T09:06:44.825Z,6.22
2023-02-25T09:07:44.816Z,6.08
2023-02-25T09:08:44.823Z,6.12
2023-02-25T09:09:44.800Z,6.19
2023-02-25T09:10:50.513Z,6.14
2023-02-25T09:11:44.789Z,6.17
2023-02-25T09:12:44.756Z,6.12
2023-02-25T09:13:44.791Z,6.11
2023-02-25T09:14:44.734Z,6.12
2023-02-25T09:15:44.753Z,6.26
2023-02-25T09:16:44.907Z,6.19
2023-02-25T09:17:44.709Z,6.17
2023-02-25T09:18:44.700Z,6.17
2023-02-25T09:19:44.730Z,6.09
2023-02-25T09:20:44.676Z,6.14
2023-02-25T09:21:44.714Z,6.17
2023-02-25T09:22:44.679Z,6.17
2023-02-25T09:23:44.685Z,6.22
2023-02-25T09:24:44.646Z,6.14
2023-02-25T09:25:44.627Z,6.17
2023-02-25T09:26:44.605Z,6.17
2023-02-25T09:27:44.638Z,6.08
2023-02-25T09:28:44.587Z,6.19
2023-02-25T09:29:44.583Z,6.11
2023-02-25T09:30:44.591Z,6.22
2023-02-25T09:31:44.773Z,6.28
2023-02-25T09:32:44.666Z,6.26
2023-02-25T09:33:44.561Z,6.38
2023-02-25T09:34:44.534Z,6.44
2023-02-25T09:35:44.549Z,6.51
2023-02-25T09:36:44.549Z,6.59
2023-02-25T09:37:44.502Z,6.60
2023-02-25T09:38:44.508Z,6.69
2023-02-25T09:39:44.478Z,6.64
2023-02-25T09:40:44.456Z,6.77
2023-02-25T09:41:44.455Z,6.87
2023-02-25T09:42:44.524Z,7.03
2023-02-25T09:43:44.451Z,7.05
2023-02-25T09:44:44.443Z,7.20
2023-02-25T09:45:44.449Z,7.18
2023-02-25T09:46:44.400Z,7.21
2023-02-25T09:47:44.468Z,7.15
2023-02-25T09:48:46.259Z,7.00
2023-02-25T09:49:44.438Z,7.00
2023-02-25T09:50:44.354Z,6.99
2023-02-25T09:51:44.342Z,6.93
2023-02-25T09:52:44.330Z,6.93
2023-02-25T09:53:44.340Z,6.93
2023-02-25T09:54:44.344Z,6.85
2023-02-25T09:55:44.294Z,6.96
2023-02-25T09:56:44.294Z,6.93
2023-02-25T09:57:44.280Z,7.02
2023-02-25T09:58:44.262Z,7.06
2023-02-25T09:59:44.295Z,7.13
2023-02-25T10:00:44.253Z,7.21
2023-02-25T10:01:44.233Z,7.11
2023-02-25T10:02:44.474Z,7.21
2023-02-25T10:03:44.236Z,7.29
2023-02-25T10:04:44.286Z,7.28
2023-02-25T10:05:44.225Z,7.25
2023-02-25T10:06:44.590Z,7.35
2023-02-25T10:07:44.177Z,7.39
2023-02-25T10:08:44.169Z,7.39
2023-02-25T10:09:44.148Z,7.33
2023-02-25T10:10:44.165Z,7.35
2023-02-25T10:11:44.199Z,7.32
2023-02-25T10:12:44.130Z,7.20
2023-02-25T10:13:44.116Z,7.02
2023-02-25T10:14:44.092Z,7.00
2023-02-25T10:15:52.043Z,6.92
2023-02-25T10:16:45.155Z,6.96
2023-02-25T10:17:44.078Z,6.93
2023-02-25T10:18:44.056Z,6.75
2023-02-25T10:19:44.069Z,6.69
2023-02-25T10:20:44.030Z,6.57
2023-02-25T10:21:44.062Z,6.51
2023-02-25T10:22:44.020Z,6.38
2023-02-25T10:23:44.014Z,6.28
2023-02-25T10:24:44.002Z,6.26
2023-02-25T10:25:44.096Z,6.26
2023-02-25T10:26:43.985Z,6.20
2023-02-25T10:27:43.966Z,6.16
2023-02-25T10:28:43.961Z,6.05
2023-02-25T10:29:43.974Z,5.98
2023-02-25T10:30:44.099Z,5.91
2023-02-25T10:31:44.234Z,5.93
2023-02-25T10:32:43.977Z,5.94
2023-02-25T10:33:43.917Z,5.91
2023-02-25T10:34:43.891Z,6.05
2023-02-25T10:35:43.886Z,6.04
2023-02-25T10:36:43.867Z,6.14
2023-02-25T10:37:43.867Z,6.11
2023-02-25T10:38:43.880Z,6.28
2023-02-25T10:39:43.842Z,6.45
2023-02-25T10:40:43.837Z,6.49
2023-02-25T10:41:43.870Z,6.54
2023-02-25T10:42:43.811Z,6.72
2023-02-25T10:43:43.792Z,6.79
2023-02-25T10:44:43.788Z,6.92
2023-02-25T10:45:43.850Z,7.03
2023-02-25T10:46:43.753Z,7.11
2023-02-25T10:47:43.786Z,7.11
2023-02-25T10:48:43.734Z,7.28
2023-02-25T10:49:43.759Z,7.33
2023-02-25T10:50:46.227Z,7.42
2023-02-25T10:51:43.718Z,7.56
2023-02-25T10:52:43.708Z,7.63
2023-02-25T10:53:43.688Z,7.70
2023-02-25T10:54:43.696Z,7.85
2023-02-25T10:55:43.681Z,7.94
2023-02-25T10:56:43.656Z,7.98
2023-02-25T10:57:43.630Z,8.06
2023-02-25T10:58:43.629Z,8.15
2023-02-25T10:59:43.640Z,8.16
2023-02-25T11:00:43.614Z,8.19
2023-02-25T11:01:43.780Z,8.15
2023-02-25T11:02:43.681Z,8.15
2023-02-25T11:03:43.569Z,8.24
2023-02-25T11:04:43.572Z,8.27
2023-02-25T11:05:43.583Z,8.19
2023-02-25T11:06:43.572Z,8.23
2023-02-25T11:07:43.554Z,8.15
2023-02-25T11:08:43.529Z,8.16
2023-02-25T11:09:43.514Z,8.15
2023-02-25T11:10:43.509Z,8.10
2023-02-25T11:11:43.532Z,8.06
2023-02-25T11:12:43.540Z,7.94
2023-02-25T11:13:43.476Z,7.95
2023-02-25T11:14:43.494Z,7.90
2023-02-25T11:15:46.444Z,7.85
2023-02-25T11:16:43.591Z,7.61
2023-02-25T11:17:43.447Z,7.58
2023-02-25T11:18:43.431Z,7.50
2023-02-25T11:19:43.422Z,7.25
2023-02-25T11:20:43.385Z,7.28
2023-02-25T11:21:43.405Z,7.29
2023-02-25T11:22:43.507Z,7.21
2023-02-25T11:23:43.405Z,7.20
2023-02-25T11:24:43.356Z,7.24
2023-02-25T11:25:43.342Z,7.25
2023-02-25T11:26:43.336Z,7.32
2023-02-25T11:27:43.324Z,7.36
2023-02-25T11:28:43.324Z,7.45
2023-02-25T11:29:43.327Z,7.42
2023-02-25T11:30:43.438Z,7.51
2023-02-25T11:31:43.546Z,7.57
2023-02-25T11:32:43.312Z,7.60
2023-02-25T11:33:43.289Z,7.82
2023-02-25T11:34:43.250Z,7.80
2023-02-25T11:35:43.232Z,7.91
2023-02-25T11:36:43.220Z,7.95
2023-02-25T11:37:45.282Z,7.91
2023-02-25T11:38:43.266Z,7.87
2023-02-25T11:39:43.198Z,7.77
2023-02-25T11:40:43.187Z,7.76
2023-02-25T11:41:43.163Z,7.73
2023-02-25T11:42:43.157Z,7.72
2023-02-25T11:43:43.142Z,7.72
2023-02-25T11:44:51.749Z,7.73
2023-02-25T11:45:43.127Z,7.83
2023-02-25T11:46:43.164Z,7.82
2023-02-25T11:47:43.107Z,7.80
2023-02-25T11:48:43.096Z,7.82
2023-02-25T11:49:43.070Z,7.90
2023-02-25T11:50:43.089Z,7.94
2023-02-25T11:51:43.061Z,8.08
2023-02-25T11:52:43.044Z,8.15
2023-02-25T11:53:43.160Z,8.16
2023-02-25T11:54:43.019Z,8.09
2023-02-25T11:55:43.038Z,8.13
2023-02-25T11:56:42.994Z,8.12
2023-02-25T11:57:42.997Z,8.23
2023-02-25T11:58:42.993Z,8.27
2023-02-25T11:59:43.003Z,8.28
2023-02-25T12:00:42.980Z,8.28
2023-02-25T12:01:42.942Z,8.26
2023-02-25T12:02:42.987Z,8.20
2023-02-25T12:03:42.924Z,8.30
2023-02-25T12:04:42.930Z,8.19
2023-02-25T12:05:42.938Z,8.13
2023-02-25T12:06:42.897Z,8.09
2023-02-25T12:07:51.151Z,8.03
2023-02-25T12:08:43.893Z,8.06
2023-02-25T12:09:42.850Z,7.97
2023-02-25T12:10:42.848Z,7.90
2023-02-25T12:11:42.851Z,7.90
2023-02-25T12:12:42.840Z,7.67
2023-02-25T12:13:42.860Z,7.56
2023-02-25T12:14:42.798Z,7.57
2023-02-25T12:15:42.807Z,7.54
2023-02-25T12:16:43.926Z,7.39
2023-02-25T12:17:42.773Z,7.36
2023-02-25T12:18:42.774Z,7.31
2023-02-25T12:19:42.757Z,7.35
2023-02-25T12:20:42.776Z,7.39
2023-02-25T12:21:42.761Z,7.45
2023-02-25T12:22:42.711Z,7.47
2023-02-25T12:23:42.733Z,7.58
2023-02-25T12:24:42.728Z,7.57
2023-02-25T12:25:42.710Z,7.60
2023-02-25T12:26:42.690Z,7.69
2023-02-25T12:27:42.695Z,7.69
2023-02-25T12:28:42.650Z,7.66
2023-02-25T12:29:42.671Z,7.56
2023-02-25T12:30:42.654Z,7.54
2023-02-25T12:31:42.805Z,7.54
2023-02-25T12:32:42.615Z,7.51
2023-02-25T12:33:42.594Z,7.48
2023-02-25T12:34:42.599Z,7.45
2023-02-25T12:35:42.601Z,7.39
2023-02-25T12:36:42.575Z,7.36
2023-02-25T12:37:42.553Z,7.32
2023-02-25T12:38:42.544Z,7.31
2023-02-25T12:39:42.528Z,7.25
2023-02-25T12:40:42.625Z,7.29
2023-02-25T12:41:42.520Z,7.23
2023-02-25T12:42:42.504Z,7.17
2023-02-25T12:43:42.507Z,7.13
2023-02-25T12:44:42.496Z,7.07
2023-02-25T12:45:42.519Z,7.11
2023-02-25T12:46:42.477Z,6.95
2023-02-25T12:47:42.454Z,6.96
2023-02-25T12:48:42.440Z,6.96
2023-02-25T12:49:42.430Z,7.02
2023-02-25T12:50:42.422Z,6.93
2023-02-25T12:51:42.415Z,6.82
2023-02-25T12:52:42.392Z,6.84
2023-02-25T12:53:42.378Z,6.81
2023-02-25T12:54:42.365Z,6.88
2023-02-25T12:55:42.364Z,6.97
2023-02-25T12:56:42.407Z,6.95
2023-02-25T12:57:42.343Z,7.10
2023-02-25T12:58:42.327Z,7.10
2023-02-25T12:59:42.351Z,7.13
2023-02-25T13:00:43.300Z,7.20
2023-02-25T13:01:42.574Z,7.35
2023-02-25T13:02:48.980Z,7.33
2023-02-25T13:03:43.339Z,7.28
2023-02-25T13:04:43.293Z,7.31
2023-02-25T13:05:42.268Z,7.33
2023-02-25T13:06:42.317Z,7.33
2023-02-25T13:07:42.908Z,7.15
2023-02-25T13:08:42.312Z,7.10
2023-02-25T13:09:42.228Z,7.06
2023-02-25T13:10:42.203Z,7.07
2023-02-25T13:12:09.555Z,7.15
2023-02-25T13:12:43.186Z,7.13
2023-02-25T13:13:42.191Z,7.14
2023-02-25T13:14:42.198Z,6.97
2023-02-25T13:15:42.167Z,6.99
2023-02-25T13:16:42.193Z,6.95
2023-02-25T13:17:42.128Z,6.99
2023-02-25T13:18:42.331Z,6.93